.
WxDataArchive / Data Records for 2007-08-13
2007-08-12 August 2007 2007-08-14

Data Records for Monday, 13 August 2007

Time	Temp	Chill	HIndex	Humid	Dewpt	 Wind 	HiWind	WindDir	Rain 	Barom 
-----	----	-----	------	-----	-----	------	------	-------	-----	----- 
00:00	72.5	72.5	72.5	79	65.6	0	0	---	0.00	29.978 
00:05	72.3	72.3	72.3	80	65.8	0	0	---	0.00	29.979 
00:10	72.1	72.1	72.1	80	65.6	0	0	---	0.00	29.980 
00:15	72.0	72.0	72.0	81	65.8	0	0	---	0.00	29.980 
00:20	71.8	71.8	71.8	81	65.6	0	0	---	0.00	29.978 
00:25	71.6	71.6	71.6	81	65.4	0	0	---	0.00	29.977 
00:30	71.5	71.5	71.5	82	65.7	0	0	---	0.00	29.977 
00:35	71.5	71.5	71.5	82	65.7	0	0	---	0.00	29.972 
00:40	71.3	71.3	71.3	82	65.5	0	0	---	0.00	29.976 
00:45	71.3	71.3	71.3	83	65.9	0	0	---	0.00	29.980 
00:50	71.1	71.1	71.1	83	65.7	0	1	292	0.00	29.983 
00:55	71.1	71.1	71.1	83	65.7	0	1	292	0.00	29.981 
01:00	70.9	70.9	70.9	83	65.5	0	0	---	0.00	29.981 
01:05	70.9	70.9	70.9	84	65.8	0	1	292	0.00	29.979 
01:10	70.8	70.8	70.8	84	65.7	0	0	---	0.00	29.980 
01:15	70.8	70.8	70.8	84	65.7	0	0	---	0.00	29.980 
01:20	70.6	70.6	70.6	84	65.5	0	1	292	0.00	29.984 
01:25	70.8	70.8	70.8	84	65.7	0	1	292	0.00	29.986 
01:30	70.6	70.6	70.6	84	65.5	0	0	---	0.00	29.987 
01:35	70.6	70.6	70.6	84	65.5	0	0	---	0.00	29.986 
01:40	70.6	70.6	70.6	84	65.5	0	0	---	0.00	29.987 
01:45	70.4	70.4	70.4	84	65.3	0	2	292	0.00	29.989 
01:50	70.4	70.4	70.4	84	65.3	0	1	292	0.00	29.994 
01:55	70.4	70.4	70.4	84	65.3	0	0	---	0.00	29.995 
02:00	70.3	70.3	70.3	84	65.2	0	0	---	0.00	29.996 
02:05	70.3	70.3	70.3	84	65.2	0	0	---	0.00	29.993 
02:10	70.3	70.3	70.3	84	65.2	0	1	292	0.00	29.993 
02:15	70.3	70.3	70.3	84	65.2	0	0	---	0.00	29.994 
02:20	70.3	70.3	70.3	84	65.2	0	0	---	0.00	29.996 
02:25	70.3	70.3	70.3	84	65.2	0	1	292	0.00	29.997 
02:30	70.3	70.3	70.3	84	65.2	0	0	---	0.00	29.996 
02:35	70.1	70.1	70.1	84	65.0	0	1	292	0.00	29.996 
02:40	70.1	70.1	70.1	84	65.0	0	0	---	0.00	29.996 
02:45	69.9	69.9	69.9	84	64.8	0	0	---	0.00	29.994 
02:50	69.8	69.8	69.8	84	64.7	0	0	---	0.00	29.993 
02:55	69.6	69.6	69.6	84	64.5	0	1	292	0.00	29.995 
03:00	69.6	69.6	69.6	84	64.5	0	0	---	0.00	29.996 
03:05	69.4	69.4	69.4	84	64.3	0	0	---	0.00	29.999 
03:10	69.3	69.3	69.3	84	64.2	0	1	292	0.00	30.000 
03:15	69.1	69.1	69.1	84	64.1	0	0	---	0.00	30.001 
03:20	68.9	68.9	68.9	85	64.2	0	0	---	0.00	30.000 
03:25	68.9	68.9	68.9	85	64.2	0	0	---	0.00	30.002 
03:30	68.8	68.8	68.8	85	64.1	0	0	---	0.00	30.004 
03:35	68.6	68.6	68.6	84	63.6	0	0	---	0.00	30.000 
03:40	68.6	68.6	68.6	84	63.6	0	0	---	0.00	30.005 
03:45	68.6	68.6	68.6	84	63.6	0	2	292	0.00	30.010 
03:50	68.6	68.6	68.6	83	63.2	0	1	292	0.00	30.013 
03:55	68.6	68.6	68.6	82	62.9	0	0	---	0.00	30.014 
04:00	68.4	68.4	68.4	82	62.7	0	0	---	0.00	30.015 
04:05	68.3	68.3	68.3	81	62.2	0	0	---	0.00	30.016 
04:10	68.1	68.1	68.1	80	61.7	0	1	292	0.00	30.015 
04:15	67.9	67.9	67.9	79	61.1	0	0	---	0.00	30.016 
04:20	67.8	67.8	67.8	77	60.3	0	1	292	0.00	30.015 
04:25	67.6	67.6	67.6	77	60.1	0	0	---	0.00	30.016 
04:30	67.3	67.3	67.3	76	59.5	0	0	---	0.00	30.017 
04:35	67.1	67.1	67.1	74	58.5	0	0	---	0.00	30.019 
04:40	66.9	66.9	66.9	73	58.0	0	1	292	0.00	30.020 
04:45	66.8	66.8	66.8	72	57.5	0	0	---	0.00	30.023 
04:50	66.6	66.6	66.6	70	56.5	0	0	---	0.00	30.027 
04:55	66.4	66.4	66.4	69	55.9	0	0	---	0.00	30.029 
05:00	66.3	66.3	66.3	69	55.8	0	1	292	0.00	30.030 
05:05	66.1	66.1	66.1	68	55.2	0	1	292	0.00	30.031 
05:10	66.1	66.1	66.1	69	55.6	0	0	---	0.00	30.031 
05:15	66.1	66.1	66.1	69	55.6	0	0	---	0.00	30.031 
05:20	66.3	66.3	66.3	68	55.4	0	0	---	0.00	30.028 
05:25	66.3	66.3	66.3	68	55.4	0	1	292	0.00	30.028 
05:30	66.3	66.3	66.3	68	55.4	0	1	292	0.00	30.029 
05:35	66.1	66.1	66.1	66	54.4	0	1	292	0.00	30.030 
05:40	66.0	66.0	66.0	67	54.7	0	2	292	0.00	30.030 
05:45	65.8	65.8	65.8	67	54.5	0	1	270	0.00	30.032 
05:50	65.5	65.5	65.5	65	53.4	0	2	225	0.00	30.032 
05:55	65.3	65.3	65.3	65	53.2	0	2	202	0.00	30.034 
06:00	65.2	65.2	65.2	65	53.1	0	2	202	0.00	30.036 
06:05	65.0	65.0	65.0	66	53.4	0	1	202	0.00	30.040 
06:10	64.8	64.8	64.8	66	53.2	0	1	202	0.00	30.041 
06:15	64.7	64.7	64.7	68	53.9	0	1	202	0.00	30.042 
06:20	64.5	64.5	64.5	68	53.7	0	3	158	0.00	30.043 
06:25	64.3	64.3	64.3	69	53.9	0	1	158	0.00	30.047 
06:30	64.2	64.2	64.2	67	53.0	0	4	90	0.00	30.049 
06:35	64.3	64.3	64.3	67	53.1	0	2	90	0.00	30.048 
06:40	64.5	64.5	64.5	67	53.3	1	3	68	0.00	30.050 
06:45	64.7	64.7	64.7	66	53.1	1	3	90	0.00	30.051 
06:50	65.0	65.0	65.0	65	52.9	1	4	112	0.00	30.055 
06:55	65.2	65.2	65.2	66	53.5	0	1	112	0.00	30.057 
07:00	65.3	65.3	65.3	65	53.2	0	4	90	0.00	30.060 
07:05	65.3	65.3	65.3	65	53.2	1	4	90	0.00	30.066 
07:10	65.5	65.5	65.5	65	53.4	1	3	112	0.00	30.064 
07:15	65.5	65.5	65.5	65	53.4	1	5	90	0.00	30.064 
07:20	65.6	65.6	65.6	66	53.9	1	3	135	0.00	30.066 
07:25	65.6	65.6	65.6	64	53.1	1	4	68	0.00	30.067 
07:30	65.8	65.8	65.8	64	53.3	1	3	135	0.00	30.066 
07:35	65.8	65.8	65.8	65	53.7	2	5	112	0.00	30.063 
07:40	65.8	65.8	65.8	66	54.1	1	4	112	0.00	30.063 
07:45	65.8	65.8	65.8	65	53.7	1	5	135	0.00	30.065 
07:50	66.0	66.0	66.0	64	53.5	1	4	112	0.00	30.067 
07:55	66.0	66.0	66.0	64	53.5	1	4	112	0.00	30.067 
08:00	66.1	66.1	66.1	66	54.4	1	4	135	0.00	30.067 
08:05	66.4	66.4	66.4	64	53.8	1	3	68	0.00	30.071 
08:10	66.8	66.8	66.8	65	54.6	1	5	112	0.00	30.069 
08:15	66.9	66.9	66.9	64	54.3	1	4	68	0.00	30.069 
08:20	67.1	67.1	67.1	62	53.6	2	5	90	0.00	30.070 
08:25	67.4	67.4	67.4	63	54.4	1	3	90	0.00	30.070 
08:30	67.6	67.6	67.6	63	54.5	1	5	135	0.00	30.070 
08:35	68.3	68.3	68.3	65	56.1	1	3	135	0.00	30.070 
08:40	68.6	68.6	68.6	58	53.2	0	2	112	0.00	30.069 
08:45	68.9	68.9	68.9	56	52.5	2	5	112	0.00	30.068 
08:50	68.9	68.9	68.9	54	51.6	2	5	90	0.00	30.067 
08:55	68.9	68.9	68.9	55	52.1	1	5	90	0.00	30.066 
09:00	69.3	69.3	69.3	56	52.9	1	5	90	0.00	30.066 
09:05	69.6	69.6	69.6	55	52.7	1	5	112	0.00	30.067 
09:10	70.3	70.3	70.3	53	52.3	1	4	135	0.00	30.067 
09:15	70.6	70.6	70.6	50	51.0	2	4	112	0.00	30.068 
09:20	70.8	70.8	70.8	46	49.0	2	5	112	0.00	30.068 
09:25	71.1	71.1	71.1	49	51.0	1	3	135	0.00	30.069 
09:30	71.8	71.8	71.8	53	53.7	0	3	112	0.00	30.072 
09:35	72.3	72.3	72.3	50	52.6	1	5	112	0.00	30.070 
09:40	72.7	72.7	72.7	50	53.0	1	3	68	0.00	30.069 
09:45	72.8	72.8	72.8	47	51.4	2	4	90	0.00	30.070 
09:50	73.0	73.0	73.0	49	52.7	1	4	112	0.00	30.070 
09:55	73.5	73.5	73.5	47	52.0	1	3	112	0.00	30.070 
10:00	73.9	73.9	73.9	45	51.2	1	3	112	0.00	30.068 
10:05	74.2	74.2	74.2	45	51.5	1	4	112	0.00	30.072 
10:10	74.6	74.6	74.6	42	50.0	1	3	112	0.00	30.075 
10:15	74.6	74.6	74.6	44	51.2	1	3	112	0.00	30.071 
10:20	74.6	74.6	74.6	44	51.2	2	4	112	0.00	30.071 
10:25	74.6	74.6	74.6	43	50.6	1	4	112	0.00	30.069 
10:30	74.9	74.9	74.9	44	51.5	1	5	90	0.00	30.069 
10:35	75.1	75.1	77.6	42	50.4	1	5	90	0.00	30.068 
10:40	75.1	75.1	77.6	43	51.1	2	7	112	0.00	30.070 
10:45	75.3	75.3	77.6	40	49.3	2	4	112	0.00	30.072 
10:50	75.3	75.3	77.6	40	49.3	3	7	112	0.00	30.071 
10:55	75.4	75.4	77.7	42	50.7	2	5	90	0.00	30.072 
11:00	76.1	76.1	78.1	47	54.4	0	2	90	0.00	30.075 
11:05	76.8	76.8	78.2	41	51.3	1	2	90	0.00	30.076 
11:10	76.7	76.7	78.3	45	53.7	0	1	90	0.00	30.076 
11:15	76.7	76.7	78.1	41	51.2	1	3	90	0.00	30.076 
11:20	77.2	77.2	78.2	38	49.6	1	5	90	0.00	30.077 
11:25	77.9	77.9	78.8	42	52.9	1	6	90	0.00	30.076 
11:30	78.1	78.1	78.9	42	53.1	0	3	90	0.00	30.077 
11:35	78.5	78.5	78.9	38	50.8	0	3	90	0.00	30.077 
11:40	79.0	79.0	79.2	38	51.2	0	2	68	0.00	30.078 
11:45	79.2	79.2	79.5	41	53.4	0	1	68	0.00	30.076 
11:50	79.6	79.6	79.0	31	46.3	0	2	68	0.00	30.077 
11:55	79.8	79.8	79.0	29	44.7	1	3	90	0.00	30.072 
12:00	79.9	79.9	79.0	28	43.9	1	3	90	0.00	30.071 
12:05	80.1	80.1	79.6	35	50.0	0	3	90	0.00	30.071 
12:10	80.1	80.1	79.2	30	45.8	0	2	90	0.00	30.072 
12:15	80.1	80.1	79.1	28	44.0	1	3	90	0.00	30.075 
12:20	80.3	80.3	80.2	41	54.4	0	4	112	0.00	30.075 
12:25	80.3	80.3	79.2	28	44.2	0	1	112	0.00	30.077 
12:30	80.7	80.7	80.1	36	51.2	0	1	112	0.00	30.072 
12:35	80.9	80.9	80.1	35	50.7	0	1	112	0.00	30.071 
12:40	80.5	80.5	79.5	30	46.2	0	2	112	0.00	30.073 
12:45	80.7	80.7	79.6	30	46.4	0	2	112	0.00	30.072 
12:50	80.9	80.9	80.1	34	49.9	0	2	270	0.00	30.073 
12:55	80.7	80.7	79.5	29	45.5	0	2	270	0.00	30.071 
13:00	80.9	80.9	79.7	30	46.5	0	2	270	0.00	30.070 
13:05	80.7	80.7	79.8	33	48.9	0	1	292	0.00	30.073 
13:10	80.7	80.7	79.8	32	48.1	0	1	292	0.00	30.069 
13:15	80.9	80.9	79.9	32	48.2	1	3	292	0.00	30.068 
13:20	81.2	81.2	80.2	33	49.3	1	4	90	0.00	30.066 
13:25	81.1	81.1	80.0	32	48.4	1	4	45	0.00	30.066 
13:30	81.2	81.2	79.9	30	46.8	1	2	315	0.00	30.066 
13:35	81.2	81.2	80.2	33	49.3	1	2	315	0.00	30.064 
13:40	81.2	81.2	80.3	35	50.9	0	3	315	0.00	30.065 
13:45	81.2	81.2	80.4	36	51.7	0	3	292	0.00	30.065 
13:50	81.4	81.4	80.2	32	48.7	1	3	68	0.00	30.065 
13:55	81.6	81.6	80.8	37	52.8	0	3	292	0.00	30.063 
14:00	81.4	81.4	80.3	33	49.5	1	5	292	0.00	30.063 
14:05	81.8	81.8	80.6	33	49.9	0	2	90	0.00	30.060 
14:10	81.8	81.8	80.7	34	50.7	1	4	68	0.00	30.058 
14:15	81.6	81.6	80.4	32	48.9	0	5	45	0.00	30.057 
14:20	82.0	82.0	80.6	31	48.4	0	4	45	0.00	30.058 
14:25	82.2	82.2	80.6	30	47.7	0	3	112	0.00	30.058 
14:30	82.4	82.4	81.3	36	52.7	0	2	22	0.00	30.054 
14:35	82.8	82.8	81.2	32	49.9	1	3	90	0.00	30.051 
14:40	82.4	82.4	80.8	30	47.8	0	2	68	0.00	30.052 
14:45	82.6	82.6	81.4	35	52.1	0	2	22	0.00	30.049 
14:50	82.6	82.6	81.1	32	49.7	0	2	0	0.00	30.046 
14:55	82.8	82.8	81.9	38	54.6	1	4	112	0.00	30.044 
15:00	82.6	82.6	81.7	38	54.4	0	3	112	0.00	30.041 
15:05	82.6	82.6	81.6	37	53.7	0	1	112	0.00	30.042 
15:10	82.6	82.6	81.1	32	49.7	0	2	90	0.00	30.039 
15:15	82.2	82.2	81.3	37	53.3	0	4	90	0.00	30.041 
15:20	81.6	81.6	80.5	33	49.7	0	2	292	0.00	30.042 
15:25	81.8	81.8	80.8	35	51.4	0	1	315	0.00	30.041 
15:30	81.8	81.8	80.4	31	48.2	1	4	315	0.00	30.038 
15:35	82.0	82.0	80.7	32	49.2	0	2	292	0.00	30.036 
15:40	82.2	82.2	80.6	30	47.7	1	5	90	0.00	30.035 
15:45	82.0	82.0	80.3	27	44.7	0	2	90	0.00	30.035 
15:50	82.4	82.4	80.8	30	47.8	0	1	90	0.00	30.034 
15:55	82.4	82.4	81.0	33	50.4	0	2	90	0.00	30.035 
16:00	82.2	82.2	81.1	35	51.8	0	2	90	0.00	30.034 
16:05	81.8	81.8	80.9	36	52.2	1	2	90	0.00	30.036 
16:10	81.4	81.4	80.1	31	47.8	0	2	90	0.00	30.037 
16:15	81.2	81.2	80.1	32	48.5	0	1	90	0.00	30.036 
16:20	81.2	81.2	80.3	35	50.9	0	2	90	0.00	30.036 
16:25	80.9	80.9	80.0	33	49.1	0	3	90	0.00	30.034 
16:30	80.9	80.9	80.0	33	49.1	0	1	90	0.00	30.033 
16:35	80.7	80.7	79.8	32	48.1	1	2	68	0.00	30.035 
16:40	80.5	80.5	79.7	33	48.7	0	2	0	0.00	30.029 
16:45	80.3	80.3	79.5	32	47.7	0	1	0	0.00	30.030 
16:50	80.3	80.3	79.7	34	49.3	0	2	0	0.00	30.027 
16:55	80.3	80.3	79.7	34	49.3	0	1	0	0.00	30.026 
17:00	80.3	80.3	79.7	34	49.3	0	1	0	0.00	30.029 
17:05	80.3	80.3	79.8	36	50.9	0	1	0	0.00	30.031 
17:10	79.9	79.9	79.3	33	48.2	0	2	0	0.00	30.028 
17:15	79.6	79.6	79.2	33	47.9	0	3	0	0.00	30.029 
17:20	79.4	79.4	79.3	37	50.8	0	3	68	0.00	30.027 
17:25	79.2	79.2	79.4	40	52.8	0	1	68	0.00	30.026 
17:30	79.0	79.0	79.2	38	51.2	0	2	68	0.00	30.026 
17:35	79.0	79.0	79.4	41	53.3	0	1	68	0.00	30.024 
17:40	78.8	78.8	79.0	37	50.3	0	3	68	0.00	30.025 
17:45	78.6	78.6	78.9	37	50.1	0	2	158	0.00	30.027 
17:50	78.5	78.5	78.8	37	50.0	0	2	135	0.00	30.026 
17:55	78.1	78.1	78.7	38	50.4	0	1	135	0.00	30.024 
18:00	77.9	77.9	78.7	41	52.3	0	1	158	0.00	30.024 
18:05	77.9	77.9	78.9	44	54.2	0	1	158	0.00	30.023 
18:10	77.7	77.7	78.8	45	54.6	0	1	158	0.00	30.023 
18:15	77.6	77.6	78.7	43	53.3	0	1	158	0.00	30.024 
18:20	77.4	77.4	78.5	41	51.8	0	1	158	0.00	30.024 
18:25	77.4	77.4	78.5	41	51.8	0	1	158	0.00	30.024 
18:30	77.0	77.0	78.3	42	52.1	0	0	---	0.00	30.025 
18:35	76.8	76.8	78.3	45	53.8	0	0	---	0.00	30.025 
18:40	76.7	76.7	78.3	44	53.1	0	0	---	0.00	30.026 
18:45	76.3	76.3	78.0	43	52.1	0	0	---	0.00	30.028 
18:50	76.1	76.1	78.0	46	53.8	0	0	---	0.00	30.027 
18:55	76.0	76.0	78.0	44	52.5	0	0	---	0.00	30.025 
19:00	75.6	75.6	77.8	45	52.7	0	0	---	0.00	30.025 
19:05	75.3	75.3	77.7	46	53.1	0	0	---	0.00	30.025 
19:10	74.9	74.9	74.9	47	53.3	0	0	---	0.00	30.024 
19:15	74.6	74.6	74.6	48	53.6	0	0	---	0.00	30.024 
19:20	74.2	74.2	74.2	49	53.8	0	0	---	0.00	30.020 
19:25	73.9	73.9	73.9	50	54.1	0	0	---	0.00	30.021 
19:30	73.3	73.3	73.3	50	53.5	0	0	---	0.00	30.022 
19:35	73.0	73.0	73.0	51	53.8	0	0	---	0.00	30.021 
19:40	72.7	72.7	72.7	52	54.0	0	0	---	0.00	30.024 
19:45	72.1	72.1	72.1	54	54.5	0	0	---	0.00	30.026 
19:50	71.6	71.6	71.6	54	54.1	0	0	---	0.00	30.026 
19:55	71.1	71.1	71.1	56	54.6	0	0	---	0.00	30.029 
20:00	70.8	70.8	70.8	57	54.8	0	0	---	0.00	30.028 
20:05	70.4	70.4	70.4	58	54.9	0	0	---	0.00	30.026 
20:10	69.9	69.9	69.9	59	54.9	0	0	---	0.00	30.027 
20:15	69.6	69.6	69.6	60	55.1	0	0	---	0.00	30.028 
20:20	69.1	69.1	69.1	61	55.1	0	0	---	0.00	30.030 
20:25	68.8	68.8	68.8	63	55.7	0	0	---	0.00	30.034 
20:30	68.4	68.4	68.4	64	55.7	0	0	---	0.00	30.037 
20:35	68.1	68.1	68.1	64	55.5	0	0	---	0.00	30.035 
20:40	67.8	67.8	67.8	65	55.6	0	0	---	0.00	30.036 
20:45	67.4	67.4	67.4	65	55.2	0	0	---	0.00	30.035 
20:50	67.1	67.1	67.1	66	55.4	0	0	---	0.00	30.033 
20:55	66.8	66.8	66.8	68	55.9	0	0	---	0.00	30.033 
21:00	66.6	66.6	66.6	69	56.1	0	0	---	0.00	30.030 
21:05	66.3	66.3	66.3	70	56.2	0	0	---	0.00	30.027 
21:10	66.1	66.1	66.1	71	56.4	0	0	---	0.00	30.027 
21:15	65.8	65.8	65.8	71	56.1	0	0	---	0.00	30.026 
21:20	65.5	65.5	65.5	72	56.2	0	0	---	0.00	30.025 
21:25	65.3	65.3	65.3	73	56.4	0	0	---	0.00	30.026 
21:30	65.0	65.0	65.0	74	56.5	0	0	---	0.00	30.026 
21:35	64.7	64.7	64.7	74	56.2	0	0	---	0.00	30.024 
21:40	64.5	64.5	64.5	75	56.4	0	0	---	0.00	30.021 
21:45	64.2	64.2	64.2	75	56.1	0	0	---	0.00	30.017 
21:50	64.0	64.0	64.0	76	56.3	0	0	---	0.00	30.014 
21:55	63.7	63.7	63.7	77	56.3	0	0	---	0.00	30.011 
22:00	63.5	63.5	63.5	77	56.2	0	0	---	0.00	30.008 
22:05	63.4	63.4	63.4	77	56.1	0	0	---	0.00	30.006 
22:10	63.2	63.2	63.2	78	56.2	0	0	---	0.00	30.004 
22:15	63.1	63.1	63.1	79	56.5	0	0	---	0.00	30.001 
22:20	62.7	62.7	62.7	79	56.1	0	0	---	0.00	29.998 
22:25	62.6	62.6	62.6	80	56.3	0	0	---	0.00	29.995 
22:30	62.4	62.4	62.4	80	56.1	0	0	---	0.00	29.993 
22:35	62.3	62.3	62.3	81	56.4	0	0	---	0.00	29.992 
22:40	62.1	62.1	62.1	81	56.2	0	0	---	0.00	29.984 
22:45	62.0	62.0	62.0	81	56.1	0	0	---	0.00	29.982 
22:50	61.6	61.6	61.6	82	56.0	0	0	---	0.00	29.981 
22:55	61.6	61.6	61.6	83	56.4	0	0	---	0.00	29.983 
23:00	61.5	61.5	61.5	83	56.3	0	0	---	0.00	29.986 
23:05	61.3	61.3	61.3	83	56.1	0	0	---	0.00	29.986 
23:10	61.2	61.2	61.2	84	56.3	0	0	---	0.00	29.990 
23:15	61.2	61.2	61.2	84	56.3	0	0	---	0.00	29.993 
23:20	61.0	61.0	61.0	85	56.5	0	0	---	0.00	29.993 
23:25	61.0	61.0	61.0	86	56.8	0	0	---	0.00	29.995 
23:30	61.0	61.0	61.0	86	56.8	0	0	---	0.00	29.996 
23:35	60.9	60.9	60.9	86	56.7	0	0	---	0.00	29.997 
23:40	60.7	60.7	60.7	86	56.5	0	0	---	0.00	29.995 
23:45	60.5	60.5	60.5	86	56.3	0	0	---	0.00	29.997 
23:50	60.4	60.4	60.4	86	56.2	0	0	---	0.00	29.998 
23:55	60.2	60.2	60.2	87	56.3	0	0	---	0.00	29.997 

CoCoRaHS
IN-AL-39
A2 Web Hosting
Creative Commons License
GoDaddy
Look for:

loaded 2017-12-13 19:38:04 • last modified 2010-11-18 10:43:29
Privacy PolicyDisclaimer
• wx.awcolley.com is powered by PmWiki v.2002016 •
• all content (unless otherwise noted) © 2017 A W Colley